LEALLEAM

Guest
Details From LEAL - Alicante
To LEAM - Almeria
Flight Number -
Tags generated
Created
Modified
Stats Distance 122 nm / 226 km
Max Altitude 3,400 ft / 1,036 m
Waypoints 3
Social Downloads 4
Likes 0
Share VATSIM

Download

Looking for another format? Having issues loading an existing format? Contact us
Advertisement - Login to hide

Notes

Basic altitude profile: - Ascent Rate: 2500ft/min - Ascent Speed: 250kts - Cruise Altitude: 35000ft - Cruise Speed: 420kts - Descent Rate: 1500ft/min - Descent Speed: 250kts Options: - Use NATs: yes - Use PACOTS: yes - Use low airways: yes - Use high airways: yes

Route

LEAL SORBA LEAM

ID Type Via Altitude Latitude Longitude Leg Dist Tot Dist Heading (true) Name
O LEAL APT - 0 ft / 0 m 38.28217˚ -0.55816˚ - 0 nm - Alicante
SORBA FIX - 3,400 ft / 1,036 m 37.03570˚ -2.12885˚ 105 nm 105 nm 225° / 224° -
O LEAM APT - 0 ft / 0 m 36.84393˚ -2.37010˚ 16 nm 122 nm 225° / 225° Almeria

Altitude Profile

Advertisement - Login to hide

LEAL

Details ICAO LEAL (ALC)
Name Alicante
Region Spain
Timezone Europe/Madrid (UTC+2.0)
Stats Elevation 141 ft / 43 m (AMSL)
Location 38.282169° -0.558157°
Runways 1
Magnetic Variation 0.232° E

METAR

LEAL 230930Z 09005KT 030V200 CAVOK 23/13 Q1018 NOSIG

Decode

TAF

TAF TAF LEAL 230500Z 2306/2406 VRB03KT 9999 FEW020 TX26/2312Z TN16/2306Z PROB30 TEMPO 2306/2307 BKN009 BECMG 2310/2312 09012KT BECMG 2316/2318 05008KT

Decode

Departure Runways

ID Width Length Bearing (true) Bearing (mag) Surface Threshold Offset Overrun Length
10 148 ft / 45 m 9,799 ft / 2,987 m 100.07° 99.84° Asphalt 0 ft / 0 m 164 ft / 50 m
28 148 ft / 45 m 9,799 ft / 2,987 m 280.09° 279.86° Asphalt 0 ft / 0 m 197 ft / 60 m

LEAM

Details ICAO LEAM (LEI)
Name Almeria
Region Spain
Timezone Unknown (UTC+0.0)
Stats Elevation 70 ft / 21 m (AMSL)
Location 36.843935° -2.370097°
Runways 1
Magnetic Variation 0.239° W

METAR

LEAM 230930Z 09012KT CAVOK 27/08 Q1015

Decode

TAF

TAF LEAM 230800Z 2309/2409 08006KT 9999 FEW030 TX29/2314Z TN17/2405Z BECMG 2309/2312 07016KT TEMPO 2312/2321 07018G28KT BECMG 2321/2324 35009KT PROB40 TEMPO 2400/2407 35015G25KT BECMG 2407/2409 07018KT

Decode

Destination Runways

ID Width Length Bearing (true) Bearing (mag) Surface Threshold Offset Overrun Length
08 148 ft / 45 m 10,484 ft / 3,196 m 72.94° 73.18° Asphalt 492 ft / 150 m 191 ft / 58 m
26 148 ft / 45 m 10,484 ft / 3,196 m 252.96° 253.20° Asphalt 0 ft / 0 m 150 ft / 46 m

Approach Navaids

Runway Type Ident Frequency Range Bearing (true) Bearing (mag) Slope Elevation
26 Localiser IAM 109.90 MHz 18 nm / 33 km 252.94° 253.18° - 70 ft / 21 m (AMSL)
26 Glidescope IAM 109.90 MHz 10 nm / 19 km 252.95° 253.19° 3.00° 70 ft / 21 m (AMSL)
26 DME IAM 109.90 MHz 18 nm / 33 km - - - 95 ft / 29 m (AMSL)

Popular Alternatives